Helen Parker — WDC6715 — position and weather

sailwx.info

Track history (hours):
 
Tides and Currents Weather Stations Pressure Air Temp Water Temp Dewpoint Dewpoint Depression Visibility Wind Speed Wind Dir Waves Ship Positions

Helen Parker

Owner: Brewster Marine LLC, Forked River, NJ. More information available from US FCC via Universal Licensing System and Coast Guard Vessel Documentation Center.

Last reported at 2017-Sep-13 19:50 UTC. Time now 2017-Sep-19 18:44 UTC.
Position N 40°39' W 074°10'.

Length 14 m.

Type: Other ship. MMSI: 367060270.

Date/timePositionNaut miles runAvg speedWind from/ knotsBaromVisibWave heightAir tempDewpointWater temp
2017-Sep-13 19:50N 40°39' W 074°10'2 5.0
2017-Sep-13 19:30N 40°39' W 074°08'3 6.5
2017-Sep-13 19:00N 40°40' W 074°04'3 5.9
2017-Sep-13 18:30N 40°42' W 074°02'2 3.5
2017-Sep-13 18:00N 40°44' W 074°02'0 0.1
2017-Sep-13 17:30N 40°44' W 074°02'0 0.0
2017-Sep-13 17:00N 40°44' W 074°02'0 0.0
2017-Sep-13 16:30N 40°44' W 074°02'3 6.7
2017-Sep-13 16:00N 40°41' W 074°03'3 6.5
2017-Sep-13 15:30N 40°39' W 074°07'3 5.6
2017-Sep-13 15:00N 40°39' W 074°10'0 0.0
2017-Sep-12 18:26N 40°39' W 074°10'2 3.9
2017-Sep-12 18:00N 40°39' W 074°08'3 6.3
2017-Sep-12 17:30N 40°38' W 074°04'0 0.4
2017-Sep-12 17:00N 40°38' W 074°04'2 4.9
2017-Sep-12 16:30N 40°39' W 074°07'3 6.8
2017-Sep-12 16:00N 40°38' W 074°12'4 7.6
2017-Sep-12 15:29N 40°34' W 074°13'2 1.9
2017-Sep-12 14:25N 40°33' W 074°15'3 6.3
2017-Sep-12 13:59N 40°35' W 074°12'3 7.1
2017-Sep-12 13:30N 40°39' W 074°11'1 0.0
2017-Sep-11 22:06N 40°39' W 074°11'1 6.7
2017-Sep-11 22:00N 40°39' W 074°12'0 0.0
2017-Sep-11 21:29N 40°39' W 074°12'0 0.1
2017-Sep-11 21:00N 40°39' W 074°12'2 4.0
2017-Sep-11 20:30N 40°39' W 074°09'1 2.9
2017-Sep-11 20:00N 40°39' W 074°07'1 2.7
2017-Sep-11 19:30N 40°39' W 074°05'2 3.6
2017-Sep-11 19:00N 40°40' W 074°03'2 4.5
2017-Sep-11 18:30N 40°41' W 074°01'2 3.7
2017-Sep-11 18:00N 40°42' W 073°59'1 1.7
2017-Sep-11 17:30N 40°43' W 073°58'1 1.6
2017-Sep-11 17:00N 40°44' W 073°58'0 0.0
2017-Sep-11 16:30N 40°44' W 073°58'0 0.0
2017-Sep-11 16:00N 40°44' W 073°58'0 0.0
2017-Sep-11 15:30N 40°44' W 073°58'0 0.0
2017-Sep-11 15:00N 40°44' W 073°58'0 0.0
2017-Sep-11 14:29N 40°44' W 073°58'0 0.0
2017-Sep-11 14:00N 40°44' W 073°58'1 2.7
2017-Sep-11 13:30N 40°43' W 073°59'0 0.1
2017-Sep-11 13:00N 40°43' W 073°59'0 0.6
2017-Sep-11 12:30N 40°42' W 073°59'0 0.0
2017-Sep-11 12:00N 40°42' W 073°59'0 0.8
2017-Sep-11 11:30N 40°43' W 073°59'0 0.1
2017-Sep-11 11:00N 40°43' W 073°59'0 0.7
2017-Sep-11 10:30N 40°42' W 073°59'0 0.8
2017-Sep-11 10:00N 40°43' W 073°59'2 4.7
2017-Sep-11 09:30N 40°41' W 074°01'3 6.0
2017-Sep-11 09:00N 40°39' W 074°04'4 7.9
2017-Sep-11 08:30N 40°39' W 074°10'  
2017-Sep-08 18:34N 40°39' W 074°10'0 2.1
2017-Sep-08 18:30N 40°39' W 074°10'2 5.0
2017-Sep-08 18:00N 40°39' W 074°07'3 6.1
2017-Sep-08 17:30N 40°40' W 074°03'4 8.0
2017-Sep-08 17:00N 40°42' W 073°59'1 1.2
2017-Sep-08 16:30N 40°42' W 073°58'2 4.9
2017-Sep-08 16:00N 40°45' W 073°58'2 3.4
2017-Sep-08 15:26N 40°47' W 073°56'0 0.0
2017-Sep-08 10:41N 40°47' W 073°56'0 0.3
2017-Sep-08 10:30N 40°47' W 073°56'2 4.9
2017-Sep-08 10:00N 40°45' W 073°58'2 4.3
2017-Sep-08 09:30N 40°43' W 073°59'0 0.6
2017-Sep-08 09:00N 40°42' W 073°59'2 3.6
2017-Sep-08 08:30N 40°41' W 074°01'3 6.2
2017-Sep-08 08:00N 40°40' W 074°04'4 8.1
2017-Sep-08 07:30N 40°39' W 074°09'1 0.1
2017-Sep-07 19:13N 40°39' W 074°10'0 0.0
2017-Sep-07 19:00N 40°39' W 074°10'1 2.9
2017-Sep-07 18:30N 40°39' W 074°08'3 5.7
2017-Sep-07 18:00N 40°39' W 074°05'3 6.8
2017-Sep-07 17:30N 40°41' W 074°01'2 4.6
2017-Sep-07 17:00N 40°42' W 073°58'2 3.2
2017-Sep-07 16:30N 40°44' W 073°58'0 0.1
2017-Sep-07 16:00N 40°44' W 073°58'2 4.9
2017-Sep-07 15:30N 40°42' W 074°00'2 4.2
2017-Sep-07 15:00N 40°44' W 074°02'0 0.1
2017-Sep-07 14:30N 40°44' W 074°02'0 0.4
2017-Sep-07 14:00N 40°44' W 074°02'0 0.2
2017-Sep-07 13:30N 40°44' W 074°02'0 0.2
2017-Sep-07 13:00N 40°44' W 074°02'0 0.0
2017-Sep-07 12:30N 40°44' W 074°02'2 3.9
2017-Sep-07 12:00N 40°42' W 074°00'2 4.5
2017-Sep-07 11:30N 40°44' W 073°58'0 0.6
2017-Sep-07 11:00N 40°44' W 073°58'2 3.0
2017-Sep-07 10:30N 40°42' W 073°59'0 0.4
2017-Sep-07 10:00N 40°42' W 073°59'3 5.4
2017-Sep-07 09:30N 40°41' W 074°02'3 6.8
2017-Sep-07 09:00N 40°39' W 074°05'3 6.9
2017-Sep-07 08:30N 40°39' W 074°10'0 0.0
2017-Sep-06 15:55N 40°39' W 074°10'0 1.0
2017-Sep-06 15:30N 40°39' W 074°11'3 6.2
2017-Sep-06 15:00N 40°39' W 074°06'3 5.5
2017-Sep-06 14:31N 40°40' W 074°03'3 6.3
2017-Sep-06 14:01N 40°43' W 074°02'0 0.8
2017-Sep-06 13:30N 40°44' W 074°02'0 0.3
2017-Sep-06 13:01N 40°44' W 074°02'0 0.1
2017-Sep-06 12:30N 40°44' W 074°02'0 0.3
2017-Sep-06 12:00N 40°44' W 074°02'2 4.3
2017-Sep-06 11:30N 40°42' W 074°02'3 5.9
2017-Sep-06 11:01N 40°39' W 074°04'2 4.5
2017-Sep-06 10:30N 40°39' W 074°07'2 4.7
2017-Sep-06 10:00N 40°39' W 074°10'1 1.3
2017-Sep-06 09:30N 40°39' W 074°11'1 1.8
2017-Sep-06 09:00N 40°39' W 074°10'0 0.0
2017-Sep-05 21:25N 40°39' W 074°10'3 7.8
2017-Sep-05 21:00N 40°39' W 074°06'4 8.5
2017-Sep-05 20:30N 40°41' W 074°02'3 5.0
2017-Sep-05 20:00N 40°42' W 073°59'0 0.6
2017-Sep-05 19:30N 40°43' W 073°59'3 5.6
2017-Sep-05 19:00N 40°45' W 073°58'4 7.0
2017-Sep-05 18:28N 40°48' W 073°54'2 4.8
2017-Sep-05 18:00N 40°48' W 073°51'0 0.7
2017-Sep-05 17:30N 40°48' W 073°51'0 0.0
2017-Sep-05 16:59N 40°48' W 073°51'0 0.0
2017-Sep-05 16:30N 40°48' W 073°51'0 0.0
2017-Sep-05 16:00N 40°48' W 073°51'0 0.0
2017-Sep-05 15:30N 40°48' W 073°51'0 0.0
2017-Sep-05 14:59N 40°48' W 073°51'0 0.0
2017-Sep-05 14:30N 40°48' W 073°51'0 0.0
2017-Sep-05 13:51N 40°48' W 073°51'0 0.0
2017-Sep-05 13:30N 40°48' W 073°51'0 0.0
2017-Sep-05 13:00N 40°48' W 073°51'0 0.0
2017-Sep-05 12:30N 40°48' W 073°51'0 0.0
2017-Sep-05 12:00N 40°48' W 073°51'0 0.0
2017-Sep-05 11:30N 40°48' W 073°51'0 0.0
2017-Sep-05 10:59N 40°48' W 073°51'0 0.3
2017-Sep-05 10:30N 40°48' W 073°51'0 0.3
2017-Sep-05 10:00N 40°48' W 073°51'2 3.7
2017-Sep-05 09:30N 40°48' W 073°53'3 6.0
2017-Sep-05 09:00N 40°46' W 073°57'3 5.9
2017-Sep-05 08:30N 40°44' W 073°58'2 4.8
2017-Sep-05 08:00N 40°42' W 074°00'2 3.9
2017-Sep-05 07:30N 40°41' W 074°02'1 2.6
2017-Sep-05 07:00N 40°40' W 074°03'2 4.0
2017-Sep-05 06:30N 40°39' W 074°06'2 4.8
2017-Sep-05 06:00N 40°39' W 074°09'2 3.8
2017-Sep-05 05:30N 40°39' W 074°11'1 1.9
2017-Sep-05 05:00N 40°39' W 074°10'  
Track history (hours):
 
Tides and Currents Weather Stations Pressure Air Temp Water Temp Dewpoint Dewpoint Depression Visibility Wind Speed Wind Dir Waves Ship Positions

Helen Parker

Owner: Brewster Marine LLC, Forked River, NJ. More information available from US FCC via Universal Licensing System and Coast Guard Vessel Documentation Center.

Last reported at 2017-Sep-13 19:50 UTC. Time now 2017-Sep-19 18:44 UTC.
Position N 40°39' W 074°10'.

Length 14 m.

Type: Other ship. MMSI: 367060270.

Date/timePositionNaut miles runAvg speedWind from/ knotsBaromVisibWave heightAir tempDewpointWater temp
2017-Sep-13 19:50N 40°39' W 074°10'2 5.0
2017-Sep-13 19:30N 40°39' W 074°08'3 6.5
2017-Sep-13 19:00N 40°40' W 074°04'3 5.9
2017-Sep-13 18:30N 40°42' W 074°02'2 3.5
2017-Sep-13 18:00N 40°44' W 074°02'0 0.1
2017-Sep-13 17:30N 40°44' W 074°02'0 0.0
2017-Sep-13 17:00N 40°44' W 074°02'0 0.0
2017-Sep-13 16:30N 40°44' W 074°02'3 6.7
2017-Sep-13 16:00N 40°41' W 074°03'3 6.5
2017-Sep-13 15:30N 40°39' W 074°07'3 5.6
2017-Sep-13 15:00N 40°39' W 074°10'0 0.0
2017-Sep-12 18:26N 40°39' W 074°10'2 3.9
2017-Sep-12 18:00N 40°39' W 074°08'3 6.3
2017-Sep-12 17:30N 40°38' W 074°04'0 0.4
2017-Sep-12 17:00N 40°38' W 074°04'2 4.9
2017-Sep-12 16:30N 40°39' W 074°07'3 6.8
2017-Sep-12 16:00N 40°38' W 074°12'4 7.6
2017-Sep-12 15:29N 40°34' W 074°13'2 1.9
2017-Sep-12 14:25N 40°33' W 074°15'3 6.3
2017-Sep-12 13:59N 40°35' W 074°12'3 7.1
2017-Sep-12 13:30N 40°39' W 074°11'1 0.0
2017-Sep-11 22:06N 40°39' W 074°11'1 6.7
2017-Sep-11 22:00N 40°39' W 074°12'0 0.0
2017-Sep-11 21:29N 40°39' W 074°12'0 0.1
2017-Sep-11 21:00N 40°39' W 074°12'2 4.0
2017-Sep-11 20:30N 40°39' W 074°09'1 2.9
2017-Sep-11 20:00N 40°39' W 074°07'1 2.7
2017-Sep-11 19:30N 40°39' W 074°05'2 3.6
2017-Sep-11 19:00N 40°40' W 074°03'2 4.5
2017-Sep-11 18:30N 40°41' W 074°01'2 3.7
2017-Sep-11 18:00N 40°42' W 073°59'1 1.7
2017-Sep-11 17:30N 40°43' W 073°58'1 1.6
2017-Sep-11 17:00N 40°44' W 073°58'0 0.0
2017-Sep-11 16:30N 40°44' W 073°58'0 0.0
2017-Sep-11 16:00N 40°44' W 073°58'0 0.0
2017-Sep-11 15:30N 40°44' W 073°58'0 0.0
2017-Sep-11 15:00N 40°44' W 073°58'0 0.0
2017-Sep-11 14:29N 40°44' W 073°58'0 0.0
2017-Sep-11 14:00N 40°44' W 073°58'1 2.7
2017-Sep-11 13:30N 40°43' W 073°59'0 0.1
2017-Sep-11 13:00N 40°43' W 073°59'0 0.6
2017-Sep-11 12:30N 40°42' W 073°59'0 0.0
2017-Sep-11 12:00N 40°42' W 073°59'0 0.8
2017-Sep-11 11:30N 40°43' W 073°59'0 0.1
2017-Sep-11 11:00N 40°43' W 073°59'0 0.7
2017-Sep-11 10:30N 40°42' W 073°59'0 0.8
2017-Sep-11 10:00N 40°43' W 073°59'2 4.7
2017-Sep-11 09:30N 40°41' W 074°01'3 6.0
2017-Sep-11 09:00N 40°39' W 074°04'4 7.9
2017-Sep-11 08:30N 40°39' W 074°10'  
2017-Sep-08 18:34N 40°39' W 074°10'0 2.1
2017-Sep-08 18:30N 40°39' W 074°10'2 5.0
2017-Sep-08 18:00N 40°39' W 074°07'3 6.1
2017-Sep-08 17:30N 40°40' W 074°03'4 8.0
2017-Sep-08 17:00N 40°42' W 073°59'1 1.2
2017-Sep-08 16:30N 40°42' W 073°58'2 4.9
2017-Sep-08 16:00N 40°45' W 073°58'2 3.4
2017-Sep-08 15:26N 40°47' W 073°56'0 0.0
2017-Sep-08 10:41N 40°47' W 073°56'0 0.3
2017-Sep-08 10:30N 40°47' W 073°56'2 4.9
2017-Sep-08 10:00N 40°45' W 073°58'2 4.3
2017-Sep-08 09:30N 40°43' W 073°59'0 0.6
2017-Sep-08 09:00N 40°42' W 073°59'2 3.6
2017-Sep-08 08:30N 40°41' W 074°01'3 6.2
2017-Sep-08 08:00N 40°40' W 074°04'4 8.1
2017-Sep-08 07:30N 40°39' W 074°09'1 0.1
2017-Sep-07 19:13N 40°39' W 074°10'0 0.0
2017-Sep-07 19:00N 40°39' W 074°10'1 2.9
2017-Sep-07 18:30N 40°39' W 074°08'3 5.7
2017-Sep-07 18:00N 40°39' W 074°05'3 6.8
2017-Sep-07 17:30N 40°41' W 074°01'2 4.6
2017-Sep-07 17:00N 40°42' W 073°58'2 3.2
2017-Sep-07 16:30N 40°44' W 073°58'0 0.1
2017-Sep-07 16:00N 40°44' W 073°58'2 4.9
2017-Sep-07 15:30N 40°42' W 074°00'2 4.2
2017-Sep-07 15:00N 40°44' W 074°02'0 0.1
2017-Sep-07 14:30N 40°44' W 074°02'0 0.4
2017-Sep-07 14:00N 40°44' W 074°02'0 0.2
2017-Sep-07 13:30N 40°44' W 074°02'0 0.2
2017-Sep-07 13:00N 40°44' W 074°02'0 0.0
2017-Sep-07 12:30N 40°44' W 074°02'2 3.9
2017-Sep-07 12:00N 40°42' W 074°00'2 4.5
2017-Sep-07 11:30N 40°44' W 073°58'0 0.6
2017-Sep-07 11:00N 40°44' W 073°58'2 3.0
2017-Sep-07 10:30N 40°42' W 073°59'0 0.4
2017-Sep-07 10:00N 40°42' W 073°59'3 5.4
2017-Sep-07 09:30N 40°41' W 074°02'3 6.8
2017-Sep-07 09:00N 40°39' W 074°05'3 6.9
2017-Sep-07 08:30N 40°39' W 074°10'0 0.0
2017-Sep-06 15:55N 40°39' W 074°10'0 1.0
2017-Sep-06 15:30N 40°39' W 074°11'3 6.2
2017-Sep-06 15:00N 40°39' W 074°06'3 5.5
2017-Sep-06 14:31N 40°40' W 074°03'3 6.3
2017-Sep-06 14:01N 40°43' W 074°02'0 0.8
2017-Sep-06 13:30N 40°44' W 074°02'0 0.3
2017-Sep-06 13:01N 40°44' W 074°02'0 0.1
2017-Sep-06 12:30N 40°44' W 074°02'0 0.3
2017-Sep-06 12:00N 40°44' W 074°02'2 4.3
2017-Sep-06 11:30N 40°42' W 074°02'3 5.9
2017-Sep-06 11:01N 40°39' W 074°04'2 4.5
2017-Sep-06 10:30N 40°39' W 074°07'2 4.7
2017-Sep-06 10:00N 40°39' W 074°10'1 1.3
2017-Sep-06 09:30N 40°39' W 074°11'1 1.8
2017-Sep-06 09:00N 40°39' W 074°10'0 0.0
2017-Sep-05 21:25N 40°39' W 074°10'3 7.8
2017-Sep-05 21:00N 40°39' W 074°06'4 8.5
2017-Sep-05 20:30N 40°41' W 074°02'3 5.0
2017-Sep-05 20:00N 40°42' W 073°59'0 0.6
2017-Sep-05 19:30N 40°43' W 073°59'3 5.6
2017-Sep-05 19:00N 40°45' W 073°58'4 7.0
2017-Sep-05 18:28N 40°48' W 073°54'2 4.8
2017-Sep-05 18:00N 40°48' W 073°51'0 0.7
2017-Sep-05 17:30N 40°48' W 073°51'0 0.0
2017-Sep-05 16:59N 40°48' W 073°51'0 0.0
2017-Sep-05 16:30N 40°48' W 073°51'0 0.0
2017-Sep-05 16:00N 40°48' W 073°51'0 0.0
2017-Sep-05 15:30N 40°48' W 073°51'0 0.0
2017-Sep-05 14:59N 40°48' W 073°51'0 0.0
2017-Sep-05 14:30N 40°48' W 073°51'0 0.0
2017-Sep-05 13:51N 40°48' W 073°51'0 0.0
2017-Sep-05 13:30N 40°48' W 073°51'0 0.0
2017-Sep-05 13:00N 40°48' W 073°51'0 0.0
2017-Sep-05 12:30N 40°48' W 073°51'0 0.0
2017-Sep-05 12:00N 40°48' W 073°51'0 0.0
2017-Sep-05 11:30N 40°48' W 073°51'0 0.0
2017-Sep-05 10:59N 40°48' W 073°51'0 0.3
2017-Sep-05 10:30N 40°48' W 073°51'0 0.3
2017-Sep-05 10:00N 40°48' W 073°51'2 3.7
2017-Sep-05 09:30N 40°48' W 073°53'3 6.0
2017-Sep-05 09:00N 40°46' W 073°57'3 5.9
2017-Sep-05 08:30N 40°44' W 073°58'2 4.8
2017-Sep-05 08:00N 40°42' W 074°00'2 3.9
2017-Sep-05 07:30N 40°41' W 074°02'1 2.6
2017-Sep-05 07:00N 40°40' W 074°03'2 4.0
2017-Sep-05 06:30N 40°39' W 074°06'2 4.8
2017-Sep-05 06:00N 40°39' W 074°09'2 3.8
2017-Sep-05 05:30N 40°39' W 074°11'1 1.9
2017-Sep-05 05:00N 40°39' W 074°10'  

Dump ship's entire track history